sensor_id;sensor_type;location;lat;lon;timestamp;pressure;altitude;pressure_sealevel;temperature;humidity
76808;BME280;65758;45.458;11.062;2024-03-02T00:00:39;100135.62;;;11.91;74.44
76808;BME280;65758;45.458;11.062;2024-03-02T00:03:07;100145.83;;;11.91;74.19
76808;BME280;65758;45.458;11.062;2024-03-02T00:05:36;100141.54;;;11.91;74.49
76808;BME280;65758;45.458;11.062;2024-03-02T00:08:04;100139.90;;;11.91;74.56
76808;BME280;65758;45.458;11.062;2024-03-02T00:10:52;100138.47;;;11.91;74.38
76808;BME280;65758;45.458;11.062;2024-03-02T00:13:23;100148.43;;;11.90;74.22
76808;BME280;65758;45.458;11.062;2024-03-02T00:15:54;100142.33;;;11.89;74.19
76808;BME280;65758;45.458;11.062;2024-03-02T00:18:32;100143.91;;;11.88;74.04
76808;BME280;65758;45.458;11.062;2024-03-02T00:20:59;100143.64;;;11.88;73.84
76808;BME280;65758;45.458;11.062;2024-03-02T00:23:29;100142.48;;;11.87;73.72
76808;BME280;65758;45.458;11.062;2024-03-02T00:25:58;100148.73;;;11.87;73.66
76808;BME280;65758;45.458;11.062;2024-03-02T00:28:30;100143.00;;;11.86;73.51
76808;BME280;65758;45.458;11.062;2024-03-02T00:31:08;100143.00;;;11.86;73.24
76808;BME280;65758;45.458;11.062;2024-03-02T00:33:38;100146.63;;;11.87;73.15
76808;BME280;65758;45.458;11.062;2024-03-02T00:36:06;100144.81;;;11.86;73.12
76808;BME280;65758;45.458;11.062;2024-03-02T00:38:34;100146.17;;;11.86;73.31
76808;BME280;65758;45.458;11.062;2024-03-02T00:41:05;100145.58;;;11.86;72.64
76808;BME280;65758;45.458;11.062;2024-03-02T00:46:02;100147.10;;;11.86;73.25
76808;BME280;65758;45.458;11.062;2024-03-02T00:48:29;100144.53;;;11.86;72.97
76808;BME280;65758;45.458;11.062;2024-03-02T00:50:58;100143.22;;;11.86;72.47
76808;BME280;65758;45.458;11.062;2024-03-02T00:53:26;100137.64;;;11.87;72.98
76808;BME280;65758;45.458;11.062;2024-03-02T00:55:53;100145.39;;;11.87;72.70
76808;BME280;65758;45.458;11.062;2024-03-02T00:58:19;100140.28;;;11.87;72.18
76808;BME280;65758;45.458;11.062;2024-03-02T01:00:46;100140.16;;;11.87;72.54
76808;BME280;65758;45.458;11.062;2024-03-02T01:03:13;100137.70;;;11.87;72.40
76808;BME280;65758;45.458;11.062;2024-03-02T01:05:43;100139.73;;;11.88;71.89
76808;BME280;65758;45.458;11.062;2024-03-02T01:08:10;100140.45;;;11.88;71.90
76808;BME280;65758;45.458;11.062;2024-03-02T01:10:37;100140.84;;;11.88;71.54
76808;BME280;65758;45.458;11.062;2024-03-02T01:13:04;100138.42;;;11.87;71.64
76808;BME280;65758;45.458;11.062;2024-03-02T01:15:31;100136.18;;;11.88;71.03
76808;BME280;65758;45.458;11.062;2024-03-02T01:17:58;100138.59;;;11.88;71.14
76808;BME280;65758;45.458;11.062;2024-03-02T01:20:25;100133.83;;;11.87;70.99
76808;BME280;65758;45.458;11.062;2024-03-02T01:22:52;100126.80;;;11.88;70.53
76808;BME280;65758;45.458;11.062;2024-03-02T01:25:19;100126.80;;;11.88;70.48
76808;BME280;65758;45.458;11.062;2024-03-02T01:27:46;100126.48;;;11.89;70.26
76808;BME280;65758;45.458;11.062;2024-03-02T01:30:16;100124.09;;;11.90;69.58
76808;BME280;65758;45.458;11.062;2024-03-02T01:32:43;100121.64;;;11.91;69.89
76808;BME280;65758;45.458;11.062;2024-03-02T01:35:10;100123.77;;;11.91;69.31
76808;BME280;65758;45.458;11.062;2024-03-02T01:37:36;100116.21;;;11.91;69.45
76808;BME280;65758;45.458;11.062;2024-03-02T01:40:04;100118.09;;;11.92;69.48
76808;BME280;65758;45.458;11.062;2024-03-02T01:42:39;100120.79;;;11.93;68.67
76808;BME280;65758;45.458;11.062;2024-03-02T01:45:07;100113.57;;;11.94;68.80
76808;BME280;65758;45.458;11.062;2024-03-02T01:47:35;100107.99;;;11.94;68.07
76808;BME280;65758;45.458;11.062;2024-03-02T01:50:02;100110.25;;;11.95;67.77
76808;BME280;65758;45.458;11.062;2024-03-02T01:52:29;100106.52;;;11.96;67.62
76808;BME280;65758;45.458;11.062;2024-03-02T01:54:56;100109.37;;;11.96;67.59
76808;BME280;65758;45.458;11.062;2024-03-02T01:57:23;100105.10;;;11.96;67.63
76808;BME280;65758;45.458;11.062;2024-03-02T01:59:50;100107.31;;;11.97;67.01
76808;BME280;65758;45.458;11.062;2024-03-02T02:02:17;100107.14;;;11.97;67.18
76808;BME280;65758;45.458;11.062;2024-03-02T02:04:44;100103.23;;;11.97;67.09
76808;BME280;65758;45.458;11.062;2024-03-02T02:07:11;100100.86;;;11.98;67.07
76808;BME280;65758;45.458;11.062;2024-03-02T02:09:38;100103.95;;;11.99;66.97
76808;BME280;65758;45.458;11.062;2024-03-02T02:12:05;100109.04;;;11.98;67.38
76808;BME280;65758;45.458;11.062;2024-03-02T02:14:33;100107.00;;;11.98;67.54
76808;BME280;65758;45.458;11.062;2024-03-02T02:17:00;100110.44;;;11.97;67.93
76808;BME280;65758;45.458;11.062;2024-03-02T02:19:27;100103.95;;;11.97;68.02
76808;BME280;65758;45.458;11.062;2024-03-02T02:21:55;100102.69;;;11.97;68.25
76808;BME280;65758;45.458;11.062;2024-03-02T02:24:22;100105.91;;;11.96;67.74
76808;BME280;65758;45.458;11.062;2024-03-02T02:26:48;100096.98;;;11.96;67.63
76808;BME280;65758;45.458;11.062;2024-03-02T02:29:15;100104.44;;;11.96;67.49
76808;BME280;65758;45.458;11.062;2024-03-02T02:31:42;100104.10;;;11.96;67.29
76808;BME280;65758;45.458;11.062;2024-03-02T02:34:09;100105.26;;;11.96;67.26
76808;BME280;65758;45.458;11.062;2024-03-02T02:36:41;100105.30;;;11.95;67.50
76808;BME280;65758;45.458;11.062;2024-03-02T02:39:11;100102.30;;;11.95;67.42
76808;BME280;65758;45.458;11.062;2024-03-02T02:41:40;100103.10;;;11.94;67.47
76808;BME280;65758;45.458;11.062;2024-03-02T02:44:06;100102.70;;;11.93;67.43
76808;BME280;65758;45.458;11.062;2024-03-02T02:46:33;100103.46;;;11.93;67.66
76808;BME280;65758;45.458;11.062;2024-03-02T02:49:00;100100.72;;;11.93;67.67
76808;BME280;65758;45.458;11.062;2024-03-02T02:51:27;100102.46;;;11.93;67.93
76808;BME280;65758;45.458;11.062;2024-03-02T02:53:54;100105.41;;;11.92;68.10
76808;BME280;65758;45.458;11.062;2024-03-02T02:56:21;100106.30;;;11.93;68.15
76808;BME280;65758;45.458;11.062;2024-03-02T02:58:47;100109.30;;;11.92;68.52
76808;BME280;65758;45.458;11.062;2024-03-02T03:01:15;100106.88;;;11.90;68.24
76808;BME280;65758;45.458;11.062;2024-03-02T03:03:46;100102.54;;;11.90;68.51
76808;BME280;65758;45.458;11.062;2024-03-02T03:06:12;100104.39;;;11.90;68.51
76808;BME280;65758;45.458;11.062;2024-03-02T03:08:39;100103.33;;;11.91;68.51
76808;BME280;65758;45.458;11.062;2024-03-02T03:11:06;100101.61;;;11.90;68.34
76808;BME280;65758;45.458;11.062;2024-03-02T03:13:34;100099.75;;;11.90;68.39
76808;BME280;65758;45.458;11.062;2024-03-02T03:16:01;100105.14;;;11.91;68.23
76808;BME280;65758;45.458;11.062;2024-03-02T03:18:28;100104.59;;;11.91;68.68
76808;BME280;65758;45.458;11.062;2024-03-02T03:20:55;100106.72;;;11.90;68.27
76808;BME280;65758;45.458;11.062;2024-03-02T03:23:22;100101.54;;;11.89;68.37
76808;BME280;65758;45.458;11.062;2024-03-02T03:25:49;100105.69;;;11.88;68.04
76808;BME280;65758;45.458;11.062;2024-03-02T03:28:16;100100.82;;;11.88;68.23
76808;BME280;65758;45.458;11.062;2024-03-02T03:30:42;100110.08;;;11.88;68.39
76808;BME280;65758;45.458;11.062;2024-03-02T03:33:09;100112.16;;;11.88;67.80
76808;BME280;65758;45.458;11.062;2024-03-02T03:35:36;100111.95;;;11.88;68.02
76808;BME280;65758;45.458;11.062;2024-03-02T03:38:04;100112.21;;;11.88;68.02
76808;BME280;65758;45.458;11.062;2024-03-02T03:40:30;100114.58;;;11.88;67.99
76808;BME280;65758;45.458;11.062;2024-03-02T03:42:57;100110.73;;;11.88;68.09
76808;BME280;65758;45.458;11.062;2024-03-02T03:45:25;100111.34;;;11.87;67.84
76808;BME280;65758;45.458;11.062;2024-03-02T03:47:53;100111.07;;;11.88;67.38
76808;BME280;65758;45.458;11.062;2024-03-02T03:50:21;100109.31;;;11.89;67.61
76808;BME280;65758;45.458;11.062;2024-03-02T03:52:48;100110.96;;;11.89;67.68
76808;BME280;65758;45.458;11.062;2024-03-02T03:55:15;100109.38;;;11.89;67.78
76808;BME280;65758;45.458;11.062;2024-03-02T03:57:42;100116.20;;;11.90;67.65
76808;BME280;65758;45.458;11.062;2024-03-02T04:00:09;100112.96;;;11.90;67.58
76808;BME280;65758;45.458;11.062;2024-03-02T04:02:40;100110.73;;;11.91;67.90
76808;BME280;65758;45.458;11.062;2024-03-02T04:05:07;100115.98;;;11.92;67.64
76808;BME280;65758;45.458;11.062;2024-03-02T04:07:38;100116.27;;;11.92;67.63
76808;BME280;65758;45.458;11.062;2024-03-02T04:10:08;100118.24;;;11.92;67.89
76808;BME280;65758;45.458;11.062;2024-03-02T04:12:36;100116.98;;;11.92;67.90
76808;BME280;65758;45.458;11.062;2024-03-02T04:15:07;100122.74;;;11.93;67.71
76808;BME280;65758;45.458;11.062;2024-03-02T04:17:34;100130.38;;;11.93;67.82
76808;BME280;65758;45.458;11.062;2024-03-02T04:20:02;100131.92;;;11.94;68.02
76808;BME280;65758;45.458;11.062;2024-03-02T04:22:33;100133.73;;;11.93;68.07
76808;BME280;65758;45.458;11.062;2024-03-02T04:25:00;100137.96;;;11.93;68.40
76808;BME280;65758;45.458;11.062;2024-03-02T04:27:27;100141.20;;;11.93;68.34
76808;BME280;65758;45.458;11.062;2024-03-02T04:29:54;100137.07;;;11.93;68.45
76808;BME280;65758;45.458;11.062;2024-03-02T04:32:21;100139.31;;;11.93;68.77
76808;BME280;65758;45.458;11.062;2024-03-02T04:34:48;100140.73;;;11.92;68.54
76808;BME280;65758;45.458;11.062;2024-03-02T04:37:15;100144.14;;;11.93;69.06
76808;BME280;65758;45.458;11.062;2024-03-02T04:39:42;100148.52;;;11.92;69.27
76808;BME280;65758;45.458;11.062;2024-03-02T04:42:08;100145.38;;;11.90;69.25
76808;BME280;65758;45.458;11.062;2024-03-02T04:44:35;100147.88;;;11.90;69.23
76808;BME280;65758;45.458;11.062;2024-03-02T04:47:04;100152.30;;;11.88;69.56
76808;BME280;65758;45.458;11.062;2024-03-02T04:49:31;100149.77;;;11.88;69.19
76808;BME280;65758;45.458;11.062;2024-03-02T04:51:58;100150.81;;;11.89;68.97
76808;BME280;65758;45.458;11.062;2024-03-02T04:54:25;100153.34;;;11.89;69.22
76808;BME280;65758;45.458;11.062;2024-03-02T04:56:52;100156.04;;;11.89;69.05
76808;BME280;65758;45.458;11.062;2024-03-02T04:59:19;100159.16;;;11.89;68.91
76808;BME280;65758;45.458;11.062;2024-03-02T05:01:46;100157.73;;;11.89;68.95
76808;BME280;65758;45.458;11.062;2024-03-02T05:04:14;100158.66;;;11.89;68.73
76808;BME280;65758;45.458;11.062;2024-03-02T05:06:41;100166.39;;;11.88;68.94
76808;BME280;65758;45.458;11.062;2024-03-02T05:09:08;100167.86;;;11.88;68.94
76808;BME280;65758;45.458;11.062;2024-03-02T05:11:35;100166.00;;;11.88;69.00
76808;BME280;65758;45.458;11.062;2024-03-02T05:14:22;100171.70;;;11.88;68.85
76808;BME280;65758;45.458;11.062;2024-03-02T05:16:49;100178.18;;;11.89;68.77
76808;BME280;65758;45.458;11.062;2024-03-02T05:19:16;100181.63;;;11.88;69.21
76808;BME280;65758;45.458;11.062;2024-03-02T05:21:43;100175.48;;;11.87;69.05
76808;BME280;65758;45.458;11.062;2024-03-02T05:24:10;100181.33;;;11.87;68.77
76808;BME280;65758;45.458;11.062;2024-03-02T05:26:37;100180.40;;;11.87;68.82
76808;BME280;65758;45.458;11.062;2024-03-02T05:29:04;100184.38;;;11.86;69.02
76808;BME280;65758;45.458;11.062;2024-03-02T05:31:30;100183.34;;;11.85;68.63
76808;BME280;65758;45.458;11.062;2024-03-02T05:33:57;100182.58;;;11.86;68.64
76808;BME280;65758;45.458;11.062;2024-03-02T05:36:24;100186.63;;;11.85;68.45
76808;BME280;65758;45.458;11.062;2024-03-02T05:38:51;100184.98;;;11.85;68.85
76808;BME280;65758;45.458;11.062;2024-03-02T05:41:19;100188.48;;;11.85;68.68
76808;BME280;65758;45.458;11.062;2024-03-02T05:43:45;100186.17;;;11.85;68.78
76808;BME280;65758;45.458;11.062;2024-03-02T05:46:12;100186.82;;;11.84;68.62
76808;BME280;65758;45.458;11.062;2024-03-02T05:48:39;100183.53;;;11.83;68.79
76808;BME280;65758;45.458;11.062;2024-03-02T05:51:06;100191.25;;;11.83;68.74
76808;BME280;65758;45.458;11.062;2024-03-02T05:53:33;100192.95;;;11.83;68.49
76808;BME280;65758;45.458;11.062;2024-03-02T05:56:00;100194.02;;;11.82;68.55
76808;BME280;65758;45.458;11.062;2024-03-02T05:58:31;100194.23;;;11.82;68.88
76808;BME280;65758;45.458;11.062;2024-03-02T06:01:09;100203.13;;;11.82;68.94
76808;BME280;65758;45.458;11.062;2024-03-02T06:03:36;100206.96;;;11.82;68.94
76808;BME280;65758;45.458;11.062;2024-03-02T06:06:03;100212.52;;;11.83;69.10
76808;BME280;65758;45.458;11.062;2024-03-02T06:08:30;100220.35;;;11.83;68.98
76808;BME280;65758;45.458;11.062;2024-03-02T06:10:57;100223.88;;;11.83;68.88
76808;BME280;65758;45.458;11.062;2024-03-02T06:13:25;100220.66;;;11.84;69.23
76808;BME280;65758;45.458;11.062;2024-03-02T06:15:53;100218.46;;;11.85;69.22
76808;BME280;65758;45.458;11.062;2024-03-02T06:18:20;100221.28;;;11.86;69.40
76808;BME280;65758;45.458;11.062;2024-03-02T06:20:46;100221.16;;;11.88;69.45
76808;BME280;65758;45.458;11.062;2024-03-02T06:23:13;100223.85;;;11.89;69.45
76808;BME280;65758;45.458;11.062;2024-03-02T06:25:40;100222.73;;;11.90;69.62
76808;BME280;65758;45.458;11.062;2024-03-02T06:28:07;100223.47;;;11.92;69.45
76808;BME280;65758;45.458;11.062;2024-03-02T06:30:34;100229.36;;;11.93;69.56
76808;BME280;65758;45.458;11.062;2024-03-02T06:33:01;100230.87;;;11.94;69.60
76808;BME280;65758;45.458;11.062;2024-03-02T06:35:27;100237.80;;;11.95;69.77
76808;BME280;65758;45.458;11.062;2024-03-02T06:37:54;100237.52;;;11.96;69.81
76808;BME280;65758;45.458;11.062;2024-03-02T06:40:21;100238.66;;;11.98;69.85
76808;BME280;65758;45.458;11.062;2024-03-02T06:42:48;100239.63;;;12.00;70.19
76808;BME280;65758;45.458;11.062;2024-03-02T06:45:15;100241.77;;;12.03;69.98
76808;BME280;65758;45.458;11.062;2024-03-02T06:47:42;100242.96;;;12.06;69.71
76808;BME280;65758;45.458;11.062;2024-03-02T06:50:09;100247.27;;;12.08;69.78
76808;BME280;65758;45.458;11.062;2024-03-02T06:52:36;100254.12;;;12.10;69.73
76808;BME280;65758;45.458;11.062;2024-03-02T06:55:03;100255.84;;;12.12;69.82
76808;BME280;65758;45.458;11.062;2024-03-02T06:57:30;100255.70;;;12.14;70.00
76808;BME280;65758;45.458;11.062;2024-03-02T06:59:57;100258.25;;;12.15;69.72
76808;BME280;65758;45.458;11.062;2024-03-02T07:02:25;100261.53;;;12.17;70.16
76808;BME280;65758;45.458;11.062;2024-03-02T07:04:54;100264.03;;;12.19;69.98
76808;BME280;65758;45.458;11.062;2024-03-02T07:07:20;100269.09;;;12.23;70.10
76808;BME280;65758;45.458;11.062;2024-03-02T07:09:47;100270.23;;;12.25;70.16
76808;BME280;65758;45.458;11.062;2024-03-02T07:12:15;100272.94;;;12.26;69.96
76808;BME280;65758;45.458;11.062;2024-03-02T07:14:41;100276.27;;;12.28;69.80
76808;BME280;65758;45.458;11.062;2024-03-02T07:17:28;100281.66;;;12.30;69.60
76808;BME280;65758;45.458;11.062;2024-03-02T07:19:54;100283.74;;;12.31;69.58
76808;BME280;65758;45.458;11.062;2024-03-02T07:22:22;100288.41;;;12.33;69.68
76808;BME280;65758;45.458;11.062;2024-03-02T07:24:49;100289.85;;;12.34;69.46
76808;BME280;65758;45.458;11.062;2024-03-02T07:27:17;100296.00;;;12.35;69.44
76808;BME280;65758;45.458;11.062;2024-03-02T07:29:44;100294.14;;;12.35;68.84
76808;BME280;65758;45.458;11.062;2024-03-02T07:32:11;100300.98;;;12.36;68.99
76808;BME280;65758;45.458;11.062;2024-03-02T07:34:38;100302.05;;;12.35;68.69
76808;BME280;65758;45.458;11.062;2024-03-02T07:37:05;100302.50;;;12.36;68.30
76808;BME280;65758;45.458;11.062;2024-03-02T07:39:32;100306.84;;;12.36;68.46
76808;BME280;65758;45.458;11.062;2024-03-02T07:42:00;100306.54;;;12.38;68.73
76808;BME280;65758;45.458;11.062;2024-03-02T07:44:27;100312.55;;;12.39;68.28
76808;BME280;65758;45.458;11.062;2024-03-02T07:46:54;100314.86;;;12.39;68.34
76808;BME280;65758;45.458;11.062;2024-03-02T07:49:21;100319.48;;;12.40;68.51
76808;BME280;65758;45.458;11.062;2024-03-02T07:51:47;100322.52;;;12.42;68.19
76808;BME280;65758;45.458;11.062;2024-03-02T07:54:14;100328.48;;;12.43;68.49
76808;BME280;65758;45.458;11.062;2024-03-02T07:56:41;100322.90;;;12.44;68.65
76808;BME280;65758;45.458;11.062;2024-03-02T07:59:08;100326.86;;;12.44;68.64
76808;BME280;65758;45.458;11.062;2024-03-02T08:01:35;100331.81;;;12.45;68.73
76808;BME280;65758;45.458;11.062;2024-03-02T08:04:02;100329.83;;;12.45;68.66
76808;BME280;65758;45.458;11.062;2024-03-02T08:06:30;100333.11;;;12.44;69.07
76808;BME280;65758;45.458;11.062;2024-03-02T08:08:59;100336.27;;;12.44;69.21
76808;BME280;65758;45.458;11.062;2024-03-02T08:11:27;100336.76;;;12.43;69.03
76808;BME280;65758;45.458;11.062;2024-03-02T08:13:54;100338.33;;;12.41;69.36
76808;BME280;65758;45.458;11.062;2024-03-02T08:16:22;100341.10;;;12.40;69.79
76808;BME280;65758;45.458;11.062;2024-03-02T08:18:50;100348.59;;;12.39;70.16
76808;BME280;65758;45.458;11.062;2024-03-02T08:21:18;100351.21;;;12.39;70.37
76808;BME280;65758;45.458;11.062;2024-03-02T08:23:45;100352.24;;;12.37;70.12
76808;BME280;65758;45.458;11.062;2024-03-02T08:26:12;100353.34;;;12.35;70.32
76808;BME280;65758;45.458;11.062;2024-03-02T08:28:39;100355.83;;;12.32;70.77
76808;BME280;65758;45.458;11.062;2024-03-02T08:31:07;100355.96;;;12.31;71.12
76808;BME280;65758;45.458;11.062;2024-03-02T08:33:35;100360.29;;;12.30;71.22
76808;BME280;65758;45.458;11.062;2024-03-02T08:36:05;100361.98;;;12.30;71.67
76808;BME280;65758;45.458;11.062;2024-03-02T08:38:32;100367.46;;;12.29;71.54
76808;BME280;65758;45.458;11.062;2024-03-02T08:40:59;100367.09;;;12.27;72.23
76808;BME280;65758;45.458;11.062;2024-03-02T08:43:26;100368.58;;;12.28;72.27
76808;BME280;65758;45.458;11.062;2024-03-02T08:45:53;100370.27;;;12.26;72.02
76808;BME280;65758;45.458;11.062;2024-03-02T08:48:20;100369.66;;;12.25;72.26
76808;BME280;65758;45.458;11.062;2024-03-02T08:50:47;100373.38;;;12.25;72.55
76808;BME280;65758;45.458;11.062;2024-03-02T08:53:14;100371.34;;;12.25;72.67
76808;BME280;65758;45.458;11.062;2024-03-02T08:55:46;100367.73;;;12.25;72.47
76808;BME280;65758;45.458;11.062;2024-03-02T08:58:13;100366.81;;;12.24;72.63
76808;BME280;65758;45.458;11.062;2024-03-02T09:00:40;100365.87;;;12.23;72.82
76808;BME280;65758;45.458;11.062;2024-03-02T09:03:07;100365.80;;;12.25;72.72
76808;BME280;65758;45.458;11.062;2024-03-02T09:05:34;100368.36;;;12.26;72.60
76808;BME280;65758;45.458;11.062;2024-03-02T09:08:01;100364.61;;;12.26;72.89
76808;BME280;65758;45.458;11.062;2024-03-02T09:10:30;100367.59;;;12.27;72.93
76808;BME280;65758;45.458;11.062;2024-03-02T09:12:58;100366.52;;;12.28;73.16
76808;BME280;65758;45.458;11.062;2024-03-02T09:15:25;100368.40;;;12.30;73.15
76808;BME280;65758;45.458;11.062;2024-03-02T09:17:52;100371.02;;;12.32;72.98
76808;BME280;65758;45.458;11.062;2024-03-02T09:20:19;100372.81;;;12.34;72.83
76808;BME280;65758;45.458;11.062;2024-03-02T09:22:46;100369.04;;;12.35;73.04
76808;BME280;65758;45.458;11.062;2024-03-02T09:25:14;100373.63;;;12.36;72.76
76808;BME280;65758;45.458;11.062;2024-03-02T09:27:43;100374.53;;;12.37;72.82
76808;BME280;65758;45.458;11.062;2024-03-02T09:30:10;100377.16;;;12.38;72.88
76808;BME280;65758;45.458;11.062;2024-03-02T09:32:37;100378.42;;;12.40;72.66
76808;BME280;65758;45.458;11.062;2024-03-02T09:35:05;100381.81;;;12.43;73.09
76808;BME280;65758;45.458;11.062;2024-03-02T09:37:31;100382.87;;;12.47;73.29
76808;BME280;65758;45.458;11.062;2024-03-02T09:39:58;100382.07;;;12.52;73.41
76808;BME280;65758;45.458;11.062;2024-03-02T09:42:26;100382.06;;;12.57;73.56
76808;BME280;65758;45.458;11.062;2024-03-02T09:44:53;100382.48;;;12.63;73.37
76808;BME280;65758;45.458;11.062;2024-03-02T09:47:20;100383.73;;;12.66;72.88
76808;BME280;65758;45.458;11.062;2024-03-02T09:49:47;100386.20;;;12.68;72.66
76808;BME280;65758;45.458;11.062;2024-03-02T09:52:14;100385.73;;;12.67;73.01
76808;BME280;65758;45.458;11.062;2024-03-02T09:54:41;100392.30;;;12.69;73.33
76808;BME280;65758;45.458;11.062;2024-03-02T09:57:08;100390.23;;;12.73;73.19
76808;BME280;65758;45.458;11.062;2024-03-02T09:59:36;100393.92;;;12.77;73.05
76808;BME280;65758;45.458;11.062;2024-03-02T10:02:03;100394.03;;;12.80;73.32
76808;BME280;65758;45.458;11.062;2024-03-02T10:04:30;100394.34;;;12.86;73.55
76808;BME280;65758;45.458;11.062;2024-03-02T10:07:15;100398.44;;;12.91;73.08
76808;BME280;65758;45.458;11.062;2024-03-02T10:09:46;100399.75;;;12.98;73.29
76808;BME280;65758;45.458;11.062;2024-03-02T10:12:15;100399.55;;;13.04;72.97
76808;BME280;65758;45.458;11.062;2024-03-02T10:14:43;100399.95;;;13.07;72.80
76808;BME280;65758;45.458;11.062;2024-03-02T10:17:14;100396.14;;;13.11;72.99
76808;BME280;65758;45.458;11.062;2024-03-02T10:19:42;100398.21;;;13.14;73.17
76808;BME280;65758;45.458;11.062;2024-03-02T10:22:10;100397.42;;;13.20;73.33
76808;BME280;65758;45.458;11.062;2024-03-02T10:24:44;100401.15;;;13.27;73.26
76808;BME280;65758;45.458;11.062;2024-03-02T10:27:23;100399.92;;;13.29;73.18
76808;BME280;65758;45.458;11.062;2024-03-02T10:29:50;100398.73;;;13.30;72.78
76808;BME280;65758;45.458;11.062;2024-03-02T10:32:16;100401.00;;;13.31;72.78
76808;BME280;65758;45.458;11.062;2024-03-02T10:34:47;100401.30;;;13.33;72.77
76808;BME280;65758;45.458;11.062;2024-03-02T10:37:15;100399.02;;;13.35;72.86
76808;BME280;65758;45.458;11.062;2024-03-02T10:39:42;100400.92;;;13.34;72.84
76808;BME280;65758;45.458;11.062;2024-03-02T10:42:09;100399.40;;;13.35;72.56
76808;BME280;65758;45.458;11.062;2024-03-02T10:44:37;100400.21;;;13.38;72.74
76808;BME280;65758;45.458;11.062;2024-03-02T10:47:04;100400.08;;;13.44;72.67
76808;BME280;65758;45.458;11.062;2024-03-02T10:49:32;100398.16;;;13.48;72.52
76808;BME280;65758;45.458;11.062;2024-03-02T10:52:00;100397.70;;;13.54;72.54
76808;BME280;65758;45.458;11.062;2024-03-02T10:54:28;100394.23;;;13.58;72.34
76808;BME280;65758;45.458;11.062;2024-03-02T10:57:04;100392.08;;;13.58;71.20
76808;BME280;65758;45.458;11.062;2024-03-02T10:59:36;100397.44;;;13.56;71.26
76808;BME280;65758;45.458;11.062;2024-03-02T11:02:06;100395.65;;;13.55;71.38
76808;BME280;65758;45.458;11.062;2024-03-02T11:04:36;100393.39;;;13.54;71.60
76808;BME280;65758;45.458;11.062;2024-03-02T11:07:08;100397.48;;;13.56;71.33
76808;BME280;65758;45.458;11.062;2024-03-02T11:09:42;100395.55;;;13.55;70.99
76808;BME280;65758;45.458;11.062;2024-03-02T11:12:36;100396.30;;;13.54;70.79
76808;BME280;65758;45.458;11.062;2024-03-02T11:15:10;100396.25;;;13.54;70.89
76808;BME280;65758;45.458;11.062;2024-03-02T11:17:40;100391.63;;;13.53;70.70
76808;BME280;65758;45.458;11.062;2024-03-02T11:20:08;100394.92;;;13.53;70.73
76808;BME280;65758;45.458;11.062;2024-03-02T11:22:36;100395.05;;;13.55;70.68
76808;BME280;65758;45.458;11.062;2024-03-02T11:25:03;100394.27;;;13.54;70.66
76808;BME280;65758;45.458;11.062;2024-03-02T11:33:06;100395.34;;;13.52;70.78
76808;BME280;65758;45.458;11.062;2024-03-02T11:35:42;100394.98;;;13.50;70.78
76808;BME280;65758;45.458;11.062;2024-03-02T11:38:10;100389.42;;;13.49;70.91
76808;BME280;65758;45.458;11.062;2024-03-02T11:40:39;100388.64;;;13.49;71.11
76808;BME280;65758;45.458;11.062;2024-03-02T11:43:07;100383.73;;;13.50;71.35
76808;BME280;65758;45.458;11.062;2024-03-02T11:45:37;100380.39;;;13.48;71.63
76808;BME280;65758;45.458;11.062;2024-03-02T11:48:12;100377.20;;;13.48;72.13
76808;BME280;65758;45.458;11.062;2024-03-02T11:50:46;100373.02;;;13.48;72.18
76808;BME280;65758;45.458;11.062;2024-03-02T11:53:14;100377.95;;;13.47;72.42
76808;BME280;65758;45.458;11.062;2024-03-02T11:55:41;100381.94;;;13.48;72.51
76808;BME280;65758;45.458;11.062;2024-03-02T11:58:14;100378.15;;;13.49;72.63
76808;BME280;65758;45.458;11.062;2024-03-02T12:00:41;100373.73;;;13.47;72.91
76808;BME280;65758;45.458;11.062;2024-03-02T12:03:11;100370.01;;;13.48;73.07
76808;BME280;65758;45.458;11.062;2024-03-02T12:05:38;100367.28;;;13.47;72.99
76808;BME280;65758;45.458;11.062;2024-03-02T12:08:07;100365.25;;;13.47;73.15
76808;BME280;65758;45.458;11.062;2024-03-02T12:10:35;100357.54;;;13.45;73.44
76808;BME280;65758;45.458;11.062;2024-03-02T12:13:05;100357.08;;;13.43;73.23
76808;BME280;65758;45.458;11.062;2024-03-02T12:15:35;100352.98;;;13.40;73.47
76808;BME280;65758;45.458;11.062;2024-03-02T12:18:06;100349.24;;;13.40;73.79
76808;BME280;65758;45.458;11.062;2024-03-02T12:20:33;100346.94;;;13.42;73.86
76808;BME280;65758;45.458;11.062;2024-03-02T12:23:02;100341.20;;;13.44;73.94
76808;BME280;65758;45.458;11.062;2024-03-02T12:25:31;100343.65;;;13.47;74.08
76808;BME280;65758;45.458;11.062;2024-03-02T12:28:01;100333.64;;;13.51;74.01
76808;BME280;65758;45.458;11.062;2024-03-02T12:30:30;100331.85;;;13.57;73.67
76808;BME280;65758;45.458;11.062;2024-03-02T12:32:58;100330.67;;;13.59;73.81
76808;BME280;65758;45.458;11.062;2024-03-02T12:35:25;100329.95;;;13.63;73.59
76808;BME280;65758;45.458;11.062;2024-03-02T12:37:53;100334.84;;;13.67;73.74
76808;BME280;65758;45.458;11.062;2024-03-02T12:40:21;100335.23;;;13.73;73.46
76808;BME280;65758;45.458;11.062;2024-03-02T12:42:50;100326.70;;;13.77;73.33
76808;BME280;65758;45.458;11.062;2024-03-02T12:45:18;100326.20;;;13.81;73.28
76808;BME280;65758;45.458;11.062;2024-03-02T12:47:52;100328.48;;;13.85;72.95
76808;BME280;65758;45.458;11.062;2024-03-02T12:50:20;100334.03;;;13.88;73.00
76808;BME280;65758;45.458;11.062;2024-03-02T12:52:54;100336.83;;;13.92;73.00